Portada
METAR-TAF:

METAR-TAF

Aeroports :

Mae Hong Son, Tailàndia

latitud: 19-18N, longitud: 097-50E, altitud: 267 m

Observació

L'informe es va fer fa 2 hores i 13 minuts, a les 11:00 UTC
Vent 4 kt amb direcció variable
Temperatura 31°C
Humitat 36%
Pressió 1011 hPa
Visibilitat: 7000 m

METAR: VTCH 171100Z VRB04KT 7000 NSC 31/14 Q1011 NOSIG

Hora: 20:13 (13:13 UTC)

Pronòstic

L'informe es va fer fa 2 hores i 13 minuts, a les 11:00 UTC
Pronòstic vàlid del 17 a les 12 UTC al 18 a les 12 UTC
Vent 3 kt del Sud-Oest
Visibilitat: 7000 m
Evolucionant progressivament
l' 17 a les 22 UTC al 17 a les 24 UTC
Visibilitat: 2000 m
boirina
Evolucionant progressivament
l' 18 a les 07 UTC al 18 a les 09 UTC
Visibilitat: 6000 m

TAF: VTCH 171100Z 1712/1812 23003KT 7000 NSC BECMG 1722/1724 2000 BR BECMG 1807/1809 6000 NSC

Observacions i pronòstics meteorològics de més de 4000 aeroports (METAR i TAF).

Les estacions disponibles són els punts grocs i vermells al mapa.

Posi el ratolí al punt desitjat per veure el nom de l'estació.

Feu clic per veure les observacions i els pronòstics meteorològics.

Per canviar el mapa: feu clic els botons verds amb una creu de color negre per apropar; al botó verd amb un guió per allunyar la imatge; o en les fletxes verdes per a mapes adjacents.


METAR-TAF: